createdAt,value
2023-07-21T00:04:25.733Z,21.99
2023-07-21T00:09:27.329Z,22.11
2023-07-21T00:14:29.707Z,21.94
2023-07-21T00:19:31.477Z,21.74
2023-07-21T00:24:33.342Z,21.80
2023-07-21T00:29:35.066Z,21.63
2023-07-21T00:34:36.750Z,21.60
2023-07-21T00:39:38.601Z,21.85
2023-07-21T00:44:40.279Z,21.81
2023-07-21T00:49:43.147Z,21.71
2023-07-21T00:54:48.550Z,21.42
2023-07-21T00:59:51.188Z,21.53
2023-07-21T01:05:01.165Z,21.36
2023-07-21T01:10:05.186Z,21.18
2023-07-21T01:15:07.484Z,21.37
2023-07-21T01:20:12.373Z,20.77
2023-07-21T01:25:15.626Z,21.59
2023-07-21T01:30:20.025Z,21.76
2023-07-21T01:35:23.191Z,21.52
2023-07-21T01:40:26.581Z,21.15
2023-07-21T01:45:28.180Z,21.08
2023-07-21T01:50:31.065Z,21.39
2023-07-21T01:55:47.666Z,21.21
2023-07-21T02:00:52.066Z,21.35
2023-07-21T02:05:54.471Z,21.15
2023-07-21T02:10:56.174Z,20.76
2023-07-21T02:16:15.092Z,20.46
2023-07-21T02:21:17.028Z,20.68
2023-07-21T02:26:18.781Z,20.54
2023-07-21T02:31:22.547Z,20.25
2023-07-21T02:36:24.731Z,20.22
2023-07-21T02:41:27.399Z,19.93
2023-07-21T02:46:29.039Z,19.77
2023-07-21T02:51:30.714Z,19.87
2023-07-21T02:56:34.753Z,20.28
2023-07-21T03:01:56.100Z,19.96
2023-07-21T03:07:05.981Z,19.44
2023-07-21T03:12:08.506Z,20.08
2023-07-21T03:17:36.539Z,19.79
2023-07-21T03:22:38.235Z,20.05
2023-07-21T03:27:41.902Z,20.07
2023-07-21T03:32:46.999Z,19.68
2023-07-21T03:37:48.853Z,19.54
2023-07-21T03:42:54.375Z,19.50
2023-07-21T03:47:56.443Z,19.12
2023-07-21T03:52:58.139Z,19.22
2023-07-21T03:58:00.724Z,19.72
2023-07-21T04:03:02.530Z,19.28
2023-07-21T04:08:04.935Z,18.70
2023-07-21T04:13:06.867Z,19.08
2023-07-21T04:18:08.649Z,19.91
2023-07-21T04:23:13.446Z,19.77
2023-07-21T04:28:15.405Z,20.31
2023-07-21T04:33:17.450Z,20.20
2023-07-21T04:38:19.209Z,19.09
2023-07-21T04:43:26.506Z,19.89
2023-07-21T04:48:28.706Z,20.05
2023-07-21T04:53:31.885Z,20.09
2023-07-21T04:58:34.136Z,19.19
2023-07-21T05:03:35.793Z,19.60
2023-07-21T05:08:37.608Z,19.84
2023-07-21T05:13:40.879Z,20.60
2023-07-21T05:19:12.109Z,20.59
2023-07-21T05:24:32.449Z,20.96
2023-07-21T05:29:35.503Z,20.98
2023-07-21T05:34:37.535Z,20.84
2023-07-21T05:39:41.385Z,21.74
2023-07-21T05:44:46.666Z,22.06
2023-07-21T05:49:49.726Z,22.86
2023-07-21T05:54:51.454Z,23.24
2023-07-21T05:59:55.107Z,22.91
2023-07-21T06:04:58.620Z,22.97
2023-07-21T06:10:08.956Z,23.05
2023-07-21T06:15:26.585Z,23.66
2023-07-21T06:20:38.148Z,23.72
2023-07-21T06:25:40.944Z,23.55
2023-07-21T06:30:47.358Z,23.77
2023-07-21T06:36:01.521Z,23.36
2023-07-21T06:41:14.399Z,23.63
2023-07-21T06:46:48.901Z,23.31
2023-07-21T06:52:11.141Z,23.49
2023-07-21T06:57:13.475Z,24.48
2023-07-21T07:02:15.224Z,24.60
2023-07-21T07:07:16.884Z,24.77
2023-07-21T07:12:19.125Z,25.28
2023-07-21T07:17:21.405Z,25.75
2023-07-21T07:22:24.375Z,25.59
2023-07-21T07:27:25.942Z,26.18
2023-07-21T07:32:27.669Z,25.99
2023-07-21T07:37:29.328Z,26.12
2023-07-21T07:42:31.015Z,27.14
2023-07-21T07:47:32.715Z,26.87
2023-07-21T07:52:34.363Z,26.46
2023-07-21T07:57:35.991Z,26.73
2023-07-21T08:02:38.012Z,27.11
2023-07-21T08:07:39.639Z,27.45
2023-07-21T08:12:41.387Z,27.67
2023-07-21T08:17:43.054Z,26.31
2023-07-21T08:22:44.872Z,26.96
2023-07-21T08:27:46.661Z,28.52
2023-07-21T08:32:48.310Z,27.51
2023-07-21T08:37:49.966Z,27.86
2023-07-21T08:42:52.021Z,27.52
2023-07-21T08:47:53.755Z,27.11
2023-07-21T08:52:55.352Z,27.51
2023-07-21T08:57:59.606Z,27.57
2023-07-21T09:03:02.749Z,26.51
2023-07-21T09:08:04.634Z,26.26
2023-07-21T09:13:15.810Z,26.52
2023-07-21T09:18:17.466Z,27.36
2023-07-21T09:23:20.830Z,27.06
2023-07-21T09:28:42.086Z,27.58
2023-07-21T09:33:47.226Z,27.33
2023-07-21T09:38:49.292Z,26.99
2023-07-21T09:43:51.708Z,26.48
2023-07-21T09:48:54.910Z,27.37
2023-07-21T09:54:04.858Z,27.99
2023-07-21T09:59:07.304Z,27.30
2023-07-21T10:04:09.980Z,29.51
2023-07-21T10:09:12.054Z,28.09
2023-07-21T10:14:34.203Z,28.07
2023-07-21T10:19:43.888Z,28.02
2023-07-21T10:24:47.252Z,28.65
2023-07-21T10:29:52.897Z,29.13
2023-07-21T10:34:54.841Z,29.09
2023-07-21T10:39:56.707Z,29.54
2023-07-21T10:44:58.285Z,29.68
2023-07-21T10:49:59.873Z,29.61
2023-07-21T10:55:01.570Z,29.65
2023-07-21T11:00:03.665Z,29.98
2023-07-21T11:05:05.706Z,29.44
2023-07-21T11:10:07.937Z,29.11
2023-07-21T11:15:11.330Z,29.09
2023-07-21T11:20:14.040Z,29.71
2023-07-21T11:25:15.678Z,29.25
2023-07-21T11:30:19.161Z,28.77
2023-07-21T11:35:20.848Z,28.31
2023-07-21T11:40:26.310Z,28.81
2023-07-21T11:45:36.204Z,28.77
2023-07-21T11:50:38.463Z,28.30
2023-07-21T11:55:40.028Z,28.06
2023-07-21T12:00:43.436Z,27.98
2023-07-21T12:05:46.620Z,28.23
2023-07-21T12:10:48.503Z,29.08
2023-07-21T12:15:50.559Z,28.03
2023-07-21T12:20:52.126Z,28.28
2023-07-21T12:25:54.388Z,29.72
2023-07-21T12:30:56.125Z,29.23
2023-07-21T12:35:57.697Z,28.94
2023-07-21T12:40:59.285Z,29.04
2023-07-21T12:46:04.435Z,29.21
2023-07-21T12:51:06.130Z,29.78
2023-07-21T12:56:09.392Z,28.91
2023-07-21T13:01:10.987Z,29.51
2023-07-21T13:06:13.504Z,28.33
2023-07-21T13:11:15.135Z,27.71
2023-07-21T13:16:16.754Z,27.90
2023-07-21T13:21:18.515Z,27.45
2023-07-21T13:26:20.402Z,27.12
2023-07-21T13:31:22.089Z,26.22
2023-07-21T13:36:24.746Z,26.06
2023-07-21T13:41:27.618Z,25.75
2023-07-21T13:46:30.392Z,25.89
2023-07-21T13:51:32.284Z,25.56
2023-07-21T13:56:34.642Z,24.56
2023-07-21T14:01:36.357Z,24.66
2023-07-21T14:06:38.990Z,24.73
2023-07-21T14:11:42.021Z,24.02
2023-07-21T14:16:43.908Z,23.28
2023-07-21T14:21:45.606Z,22.89
2023-07-21T14:26:47.196Z,22.37
2023-07-21T14:31:49.000Z,22.21
2023-07-21T14:36:50.634Z,21.44
2023-07-21T14:41:52.244Z,21.92
2023-07-21T14:46:53.960Z,22.18
2023-07-21T14:51:59.919Z,23.16
2023-07-21T14:57:01.504Z,23.11
2023-07-21T15:02:03.197Z,23.25
2023-07-21T15:07:05.094Z,23.72
2023-07-21T15:12:07.025Z,23.74
2023-07-21T15:17:08.674Z,24.42
2023-07-21T15:22:10.400Z,24.69
2023-07-21T15:27:12.361Z,25.25
2023-07-21T15:32:14.052Z,24.79
2023-07-21T15:37:15.704Z,24.90
2023-07-21T15:42:17.482Z,25.09
2023-07-21T15:47:19.072Z,25.49
2023-07-21T15:52:20.713Z,25.65
2023-07-21T15:57:22.308Z,25.46
2023-07-21T16:02:23.953Z,25.13
2023-07-21T16:07:25.937Z,24.86
2023-07-21T16:12:28.008Z,22.41
2023-07-21T16:17:29.704Z,22.55
2023-07-21T16:22:31.302Z,22.41
2023-07-21T16:27:33.139Z,22.87
2023-07-21T16:32:34.774Z,22.43
2023-07-21T16:37:36.407Z,22.90
2023-07-21T16:42:38.871Z,22.92
2023-07-21T16:47:40.970Z,22.93
2023-07-21T16:52:42.761Z,23.34
2023-07-21T16:57:44.369Z,23.51
2023-07-21T17:02:45.989Z,23.10
2023-07-21T17:07:47.814Z,23.13
2023-07-21T17:12:49.390Z,24.35
2023-07-21T17:17:51.549Z,24.48
2023-07-21T17:22:53.174Z,24.46
2023-07-21T17:27:54.822Z,24.47
2023-07-21T17:32:56.510Z,24.78
2023-07-21T17:37:58.136Z,25.32
2023-07-21T17:42:59.755Z,25.03
2023-07-21T17:48:02.788Z,24.86
2023-07-21T17:53:04.891Z,23.81
2023-07-21T17:58:06.749Z,23.73
2023-07-21T18:03:09.571Z,23.57
2023-07-21T18:08:11.272Z,23.89
2023-07-21T18:13:12.931Z,24.00
2023-07-21T18:18:14.559Z,23.49
2023-07-21T18:23:16.273Z,24.11
2023-07-21T18:28:18.079Z,23.51
2023-07-21T18:33:19.929Z,23.30
2023-07-21T18:38:21.491Z,23.49
2023-07-21T18:43:23.152Z,23.26
2023-07-21T18:48:25.011Z,22.99
2023-07-21T18:53:26.946Z,23.51
2023-07-21T18:58:28.505Z,23.47
2023-07-21T19:03:30.404Z,23.68
2023-07-21T19:08:32.140Z,23.57
2023-07-21T19:13:33.968Z,23.29
2023-07-21T19:18:36.133Z,23.07
2023-07-21T19:23:38.671Z,22.68
2023-07-21T19:28:40.294Z,22.94
2023-07-21T19:33:41.969Z,22.69
2023-07-21T19:38:43.616Z,22.63
2023-07-21T19:43:45.171Z,22.40
2023-07-21T19:48:46.872Z,21.94
2023-07-21T19:53:49.633Z,21.67
2023-07-21T19:58:51.613Z,21.79
2023-07-21T20:03:53.562Z,21.79
2023-07-21T20:08:55.334Z,21.50
2023-07-21T20:13:56.987Z,21.80
2023-07-21T20:18:58.734Z,21.50
2023-07-21T20:24:00.527Z,21.18
2023-07-21T20:29:03.684Z,21.17
2023-07-21T20:34:06.454Z,21.08
2023-07-21T20:39:08.016Z,20.80
2023-07-21T20:44:09.681Z,21.26
2023-07-21T20:49:11.416Z,21.13
2023-07-21T20:54:13.033Z,21.39
2023-07-21T20:59:14.837Z,21.27
2023-07-21T21:04:16.631Z,21.70
2023-07-21T21:09:18.486Z,21.66
2023-07-21T21:14:20.042Z,22.00
2023-07-21T21:19:21.604Z,22.09
2023-07-21T21:24:23.240Z,22.11
2023-07-21T21:29:24.818Z,22.38
2023-07-21T21:34:26.469Z,22.62
2023-07-21T21:39:28.329Z,22.49
2023-07-21T21:44:29.929Z,22.05
2023-07-21T21:49:31.522Z,21.86
2023-07-21T21:54:33.129Z,21.91
2023-07-21T21:59:34.838Z,21.71
2023-07-21T22:04:36.656Z,21.54
2023-07-21T22:09:38.388Z,21.27
2023-07-21T22:14:54.547Z,21.37
2023-07-21T22:20:09.487Z,21.04
2023-07-21T22:25:12.429Z,21.24
2023-07-21T22:30:14.166Z,21.06
2023-07-21T22:35:15.839Z,21.07
2023-07-21T22:40:17.525Z,20.89
2023-07-21T22:45:19.196Z,21.12
2023-07-21T22:50:20.893Z,21.08
2023-07-21T22:55:22.541Z,20.95
2023-07-21T23:00:24.168Z,20.19
2023-07-21T23:05:25.850Z,19.96
2023-07-21T23:10:27.491Z,20.79
2023-07-21T23:15:29.160Z,20.82
2023-07-21T23:20:30.888Z,21.28
2023-07-21T23:25:32.478Z,21.24
2023-07-21T23:30:34.064Z,20.68
2023-07-21T23:35:35.705Z,20.08
2023-07-21T23:40:37.622Z,20.61
2023-07-21T23:45:39.347Z,20.71
2023-07-21T23:50:43.616Z,19.87
2023-07-21T23:55:45.297Z,19.88
